Aérodrome :
LOGIN :

S'inscrire | Disclaimer

   EN    FR    IT 

 










Légende :    VFR   VFR Marginal   IFR   IFR Intensif   IFR Très Intensif
Visi : 
Plafond : 
>= 8 km
>= 3000ft
5 à 8 km
1000 à 3000 ft
1500m à 5 km
500 à 1000 ft
800 à 1500m
200 à 500 ft
< 800m
< 200 ft
Symboles :   Orages  Brouillard  Fortes neiges  Fortes précipitations  Vent > 20 kt
SIGMETs :   Divers  Orages  Givrage  Turbulence  Onde Orograph.  Cendres Volcan.







- Altitude de l'aérodrome : 245 ft
- Code IATA : BIQ
- Voir les cartes d'approche


LFBZ - Biarritz

DERNIER METAR :
  • 241230Z AUTO 33008KT 300V040 CAVOK 25/19 Q1018 NOSIG

METARs EXPIRÉS :
  • 241200Z AUTO 34008KT 300V020 CAVOK 24/18 Q1018 NOSIG
  • 241130Z AUTO 35007KT 320V040 CAVOK 24/18 Q1018 NOSIG
  • 241100Z AUTO 36006KT 330V080 CAVOK 25/18 Q1018 NOSIG
  • 241030Z AUTO 35004KT 300V070 CAVOK 25/17 Q1018 NOSIG
  • 241000Z AUTO VRB03KT CAVOK 23/16 Q1018 NOSIG

TAF TAF LFBZ
Valide du 24 à 12h jusqu'au 25 à 12h UTC


241100Z 2412/2512 VRB03KT CAVOK
TEMPO 2412/2416 35010KT
Pas de NOTAMs connus pour ce terrain.



MET'MAP, la Météo Aéronautique d'un coup d'oeil ! - Copyright ORBIFLY Décembre 2007 - Disclaimer

ORBIFLY MET'MAP TEAM :

Programmation & Développement : Alexandra Zaïnal
Conception & Développement : Baudouin d'Aumeries
Co-Programmation & Développement : Marc-Olivier Méhu
Soutien technique & logistique : Manuel Goepfert

Contact : metmap@orbifly.com




SOURCES & CREDITS :

   NOAA